This is the latest recevied weather packets stored in our database for station/object HS5NMF. If no packets are shown the sender has not sent any weather packets the latest 10 day(s).
| Time | Temp. | Humidity | Pressure | Rain* | Wind** | Luminosity | Snow |
|---|---|---|---|---|---|---|---|
| 1778101685 | 28.33° C | 86% | 976 hPa | - | - | 0 W/m² | - |
| 1778101365 | 28.33° C | 87% | 976 hPa | - | - | 0 W/m² | - |
| 1778101039 | 28.33° C | 86% | 976 hPa | - | - | 0 W/m² | - |
| 1778100717 | 28.33° C | 86% | 976 hPa | - | - | 0 W/m² | - |
| 1778100395 | 28.89° C | 81% | 976 hPa | - | - | 0 W/m² | - |
| 1778100069 | 28.89° C | 80% | 976 hPa | - | - | 0 W/m² | - |
| 1778099747 | 29.44° C | 79% | 976 hPa | - | - | 0 W/m² | - |
| 1778099424 | 29.44° C | 79% | 976 hPa | - | - | 0 W/m² | - |
| 1778099104 | 28.89° C | 81% | 976 hPa | - | - | 0 W/m² | - |
| 1778098777 | 28.89° C | 81% | 976 hPa | - | - | 0 W/m² | - |
| 1778098453 | 29.44° C | 79% | 976 hPa | - | - | 0 W/m² | - |
| 1778098132 | 28.89° C | 82% | 976 hPa | - | - | 0 W/m² | - |
| 1778097807 | 28.33° C | 84% | 976 hPa | - | - | 0 W/m² | - |
| 1778097485 | 29.44° C | 79% | 976 hPa | - | - | 0 W/m² | - |
| 1778097159 | 28.89° C | 80% | 976 hPa | - | - | 0 W/m² | - |
| 1778096836 | 28.89° C | 81% | 976 hPa | - | - | 0 W/m² | - |
| 1778096514 | 28.33° C | 85% | 976 hPa | - | - | 0 W/m² | - |
| 1778096189 | 28.33° C | 87% | 976 hPa | - | - | 0 W/m² | - |
| 1778095868 | 28.89° C | 82% | 976 hPa | - | - | 0 W/m² | - |
| 1778095544 | 28.33° C | 86% | 976 hPa | - | - | 0 W/m² | - |
| 1778095216 | 29.44° C | 82% | 976 hPa | - | - | 0 W/m² | - |
| 1778094895 | 28.89° C | 84% | 976 hPa | - | - | 0 W/m² | - |
| 1778094571 | 28.89° C | 85% | 976 hPa | - | - | 0 W/m² | - |
| 1778094246 | 28.89° C | 84% | 976 hPa | - | - | 0 W/m² | - |
| 1778093926 | 28.89° C | 84% | 976 hPa | - | - | 0 W/m² | - |
* Rain since midnight (hover to see other rain measurements)
** Current wind speed in m/s (hover to see current wind gust speed)